createdAt,value
2023-06-12T00:14:52.836Z,27.80
2023-06-12T00:29:54.559Z,27.47
2023-06-12T00:44:56.278Z,30.43
2023-06-12T00:59:58.003Z,29.70
2023-06-12T01:14:59.678Z,28.07
2023-06-12T01:30:27.963Z,23.33
2023-06-12T01:45:29.632Z,25.70
2023-06-12T02:00:31.420Z,26.70
2023-06-12T02:15:33.096Z,27.07
2023-06-12T02:30:34.729Z,23.83
2023-06-12T02:45:36.392Z,26.77
2023-06-12T03:00:38.116Z,27.23
2023-06-12T03:15:39.895Z,21.17
2023-06-12T03:30:41.562Z,26.47
2023-06-12T03:45:43.315Z,25.60
2023-06-12T04:00:49.011Z,27.03
2023-06-12T04:15:51.353Z,26.10
2023-06-12T04:30:53.092Z,27.53
2023-06-12T04:45:57.828Z,29.03
2023-06-12T05:01:02.009Z,28.50
2023-06-12T05:16:03.811Z,29.37
2023-06-12T05:31:06.601Z,29.40
2023-06-12T05:46:08.691Z,29.30
2023-06-12T06:01:12.862Z,28.57
2023-06-12T06:16:14.678Z,23.63
2023-06-12T06:31:16.519Z,26.77
2023-06-12T06:46:18.291Z,31.97
2023-06-12T07:01:20.030Z,28.33
2023-06-12T07:16:21.895Z,34.77
2023-06-12T07:31:23.714Z,34.93
2023-06-12T07:46:25.450Z,34.87
2023-06-12T08:01:27.492Z,37.73
2023-06-12T08:16:29.246Z,35.33
2023-06-12T08:31:31.156Z,30.97
2023-06-12T08:46:33.205Z,33.70
2023-06-12T09:01:35.707Z,33.33
2023-06-12T09:16:37.447Z,30.80
2023-06-12T09:31:41.954Z,30.87
2023-06-12T09:46:43.771Z,30.83
2023-06-12T10:01:54.630Z,27.90
2023-06-12T10:16:59.081Z,29.57
2023-06-12T10:32:08.857Z,30.33
2023-06-12T10:47:22.501Z,32.07
2023-06-12T11:02:24.645Z,31.33
2023-06-12T11:17:26.559Z,31.50
2023-06-12T11:32:28.332Z,33.13
2023-06-12T12:02:41.113Z,40.60
2023-06-12T12:17:44.114Z,41.53
2023-06-12T12:32:47.999Z,39.17
2023-06-12T12:47:49.909Z,34.37
2023-06-12T13:02:51.866Z,42.77
2023-06-12T13:17:54.453Z,39.13
2023-06-12T13:32:56.354Z,37.63
2023-06-12T13:47:58.170Z,30.67
2023-06-12T14:03:00.868Z,36.50
2023-06-12T14:18:04.357Z,35.63
2023-06-12T14:33:06.388Z,34.23
2023-06-12T14:48:08.123Z,29.57
2023-06-12T15:03:10.001Z,34.17
2023-06-12T15:18:12.067Z,33.47
2023-06-12T15:33:13.907Z,29.17
2023-06-12T15:48:15.893Z,30.33
2023-06-12T16:03:17.780Z,29.90
2023-06-12T16:18:19.571Z,27.63
2023-06-12T16:33:21.290Z,24.00
2023-06-12T16:48:23.016Z,29.33
2023-06-12T17:03:24.775Z,28.87
2023-06-12T17:18:27.031Z,29.07
2023-06-12T17:33:28.961Z,25.53
2023-06-12T17:48:30.967Z,28.17
2023-06-12T18:03:32.814Z,28.40
2023-06-12T18:18:34.653Z,26.60
2023-06-12T18:33:36.331Z,28.33
2023-06-12T18:48:38.063Z,27.07
2023-06-12T19:03:39.822Z,24.73
2023-06-12T19:18:41.578Z,27.50
2023-06-12T19:33:43.254Z,27.60
2023-06-12T19:48:44.974Z,27.07
2023-06-12T20:03:47.541Z,21.27
2023-06-12T20:18:49.239Z,27.90
2023-06-12T20:33:50.981Z,25.57
2023-06-12T20:48:52.950Z,29.03
2023-06-12T21:03:54.758Z,28.70
2023-06-12T21:18:56.726Z,29.10
2023-06-12T21:33:59.756Z,27.43
2023-06-12T21:49:01.454Z,27.30
2023-06-12T22:04:03.764Z,20.07
2023-06-12T22:19:08.336Z,31.10
2023-06-12T22:34:11.305Z,24.60
2023-06-12T22:49:17.228Z,23.60
2023-06-12T23:04:22.293Z,20.93
2023-06-12T23:19:26.878Z,25.97
2023-06-12T23:34:28.830Z,21.50
2023-06-12T23:49:31.704Z,27.53
